createdAt,value
2022-09-04T00:02:04.940Z,2.63
2022-09-04T00:05:04.475Z,2.20
2022-09-04T00:07:52.815Z,2.13
2022-09-04T00:11:02.962Z,2.20
2022-09-04T00:13:32.956Z,2.53
2022-09-04T00:16:03.477Z,2.40
2022-09-04T00:18:56.763Z,2.50
2022-09-04T00:21:52.596Z,4.37
2022-09-04T00:24:25.726Z,2.70
2022-09-04T00:27:10.736Z,2.53
2022-09-04T00:29:49.206Z,3.93
2022-09-04T00:32:35.109Z,2.27
2022-09-04T00:35:20.825Z,2.43
2022-09-04T00:38:13.776Z,2.13
2022-09-04T00:40:52.374Z,1.77
2022-09-04T00:43:53.470Z,2.00
2022-09-04T00:46:48.400Z,2.47
2022-09-04T00:49:30.859Z,2.37
2022-09-04T00:52:31.448Z,2.17
2022-09-04T00:55:16.265Z,2.60
2022-09-04T00:57:46.675Z,2.47
2022-09-04T01:00:17.945Z,2.17
2022-09-04T01:02:54.285Z,2.00
2022-09-04T01:05:27.420Z,2.30
2022-09-04T01:08:16.936Z,1.80
2022-09-04T01:11:04.053Z,2.20
2022-09-04T01:13:51.064Z,2.70
2022-09-04T01:16:54.318Z,2.10
2022-09-04T01:19:50.110Z,2.40
2022-09-04T01:22:25.119Z,2.20
2022-09-04T01:25:14.430Z,2.10
2022-09-04T01:27:55.609Z,2.10
2022-09-04T01:30:23.381Z,2.33
2022-09-04T01:33:09.652Z,2.20
2022-09-04T01:36:02.684Z,2.33
2022-09-04T01:38:51.489Z,2.27
2022-09-04T01:41:44.164Z,2.10
2022-09-04T01:44:13.526Z,2.17
2022-09-04T01:47:09.660Z,2.63
2022-09-04T01:49:56.988Z,2.00
2022-09-04T01:52:24.663Z,2.47
2022-09-04T01:55:19.210Z,2.60
2022-09-04T01:58:29.917Z,2.13
2022-09-04T02:01:31.768Z,2.50
2022-09-04T02:04:20.559Z,2.17
2022-09-04T02:06:59.111Z,2.10
2022-09-04T02:09:45.128Z,1.90
2022-09-04T02:12:29.848Z,2.30
2022-09-04T02:14:57.509Z,2.33
2022-09-04T02:17:56.312Z,2.27
2022-09-04T02:20:30.017Z,2.20
2022-09-04T02:23:30.428Z,2.07
2022-09-04T02:26:06.424Z,2.40
2022-09-04T02:29:12.177Z,2.97
2022-09-04T02:31:49.425Z,2.47
2022-09-04T02:34:25.989Z,2.60
2022-09-04T02:37:14.462Z,2.60
2022-09-04T02:39:47.950Z,2.47
2022-09-04T02:42:17.298Z,3.40
2022-09-04T02:45:07.766Z,2.73
2022-09-04T02:48:05.082Z,2.50
2022-09-04T02:50:53.654Z,3.00
2022-09-04T02:53:33.189Z,2.53
2022-09-04T02:56:01.124Z,3.03
2022-09-04T02:58:39.866Z,2.67
2022-09-04T03:01:32.945Z,3.13
2022-09-04T03:04:15.883Z,2.47
2022-09-04T03:07:01.319Z,2.97
2022-09-04T03:09:39.773Z,3.43
2022-09-04T03:12:34.555Z,2.70
2022-09-04T03:15:09.263Z,2.60
2022-09-04T03:18:16.790Z,2.70
2022-09-04T03:20:53.666Z,3.10
2022-09-04T03:23:39.885Z,2.63
2022-09-04T03:26:29.938Z,2.87
2022-09-04T03:29:30.848Z,2.60
2022-09-04T03:32:15.142Z,2.40
2022-09-04T03:34:48.507Z,3.13
2022-09-04T03:37:18.392Z,2.70
2022-09-04T03:39:49.092Z,4.40
2022-09-04T03:42:25.366Z,3.20
2022-09-04T03:44:54.919Z,3.40
2022-09-04T03:47:36.140Z,3.87
2022-09-04T03:50:33.278Z,3.10
2022-09-04T03:53:13.100Z,2.87
2022-09-04T03:55:49.498Z,3.83
2022-09-04T03:58:59.657Z,2.93
2022-09-04T04:01:28.026Z,3.20
2022-09-04T04:03:56.407Z,3.23
2022-09-04T04:06:37.333Z,3.47
2022-09-04T04:09:16.886Z,3.10
2022-09-04T04:12:13.561Z,3.90
2022-09-04T04:15:05.556Z,3.53
2022-09-04T04:18:13.432Z,3.10
2022-09-04T04:20:54.484Z,3.53
2022-09-04T04:23:58.202Z,4.00
2022-09-04T04:27:13.910Z,4.60
2022-09-04T04:30:07.665Z,4.20
2022-09-04T04:32:35.574Z,3.77
2022-09-04T04:35:34.939Z,3.83
2022-09-04T04:38:03.359Z,4.20
2022-09-04T04:40:32.450Z,3.57
2022-09-04T04:43:14.326Z,3.80
2022-09-04T04:46:11.309Z,4.43
2022-09-04T04:49:04.809Z,3.87
2022-09-04T04:51:52.206Z,3.67
2022-09-04T04:54:57.380Z,4.57
2022-09-04T04:57:27.535Z,4.73
2022-09-04T04:59:55.981Z,5.70
2022-09-04T05:02:31.247Z,5.83
2022-09-04T05:05:13.669Z,5.43
2022-09-04T05:08:08.034Z,5.27
2022-09-04T05:11:05.254Z,5.10
2022-09-04T05:14:27.890Z,4.53
2022-09-04T05:17:06.188Z,3.27
2022-09-04T05:19:47.733Z,3.73
2022-09-04T05:22:21.466Z,4.43
2022-09-04T05:25:21.993Z,3.90
2022-09-04T05:28:06.447Z,4.00
2022-09-04T05:31:01.700Z,3.90
2022-09-04T05:33:29.615Z,3.43
2022-09-04T05:36:05.607Z,3.40
2022-09-04T05:38:44.318Z,3.60
2022-09-04T05:41:35.710Z,3.30
2022-09-04T05:44:13.936Z,3.30
2022-09-04T05:46:54.063Z,3.10
2022-09-04T05:49:55.846Z,3.10
2022-09-04T05:52:56.351Z,2.77
2022-09-04T05:56:00.435Z,3.10
2022-09-04T05:58:59.997Z,2.73
2022-09-04T06:01:36.277Z,2.97
2022-09-04T06:04:15.674Z,2.70
2022-09-04T06:07:03.993Z,2.93
2022-09-04T06:09:43.028Z,2.10
2022-09-04T06:12:19.884Z,1.90
2022-09-04T06:15:06.274Z,2.63
2022-09-04T06:18:07.459Z,2.10
2022-09-04T06:20:43.617Z,1.83
2022-09-04T06:23:11.430Z,2.03
2022-09-04T06:26:07.641Z,2.22
2022-09-04T06:29:16.766Z,2.25
2022-09-04T06:32:17.794Z,1.70
2022-09-04T06:35:03.983Z,2.20
2022-09-04T06:38:12.590Z,1.92
2022-09-04T06:41:11.291Z,1.90
2022-09-04T06:44:02.043Z,1.83
2022-09-04T06:46:57.142Z,1.88
2022-09-04T06:49:54.827Z,2.05
2022-09-04T06:52:40.956Z,2.15
2022-09-04T06:55:29.031Z,2.10
2022-09-04T06:58:18.165Z,1.48
2022-09-04T07:01:00.926Z,2.08
2022-09-04T07:04:09.903Z,2.10
2022-09-04T07:06:51.510Z,2.05
2022-09-04T07:10:03.601Z,1.90
2022-09-04T07:12:33.829Z,2.13
2022-09-04T07:15:32.133Z,2.03
2022-09-04T07:18:24.330Z,2.10
2022-09-04T07:21:06.912Z,1.77
2022-09-04T07:23:59.009Z,2.00
2022-09-04T07:26:38.542Z,1.88
2022-09-04T07:29:29.766Z,2.25
2022-09-04T07:32:20.282Z,2.22
2022-09-04T07:35:08.831Z,1.83
2022-09-04T07:37:58.642Z,1.95
2022-09-04T07:40:28.061Z,1.95
2022-09-04T07:43:10.398Z,2.92
2022-09-04T07:45:40.251Z,2.10
2022-09-04T07:48:21.343Z,2.25
2022-09-04T07:51:10.377Z,2.28
2022-09-04T07:53:53.027Z,2.40
2022-09-04T07:56:20.663Z,1.70
2022-09-04T07:59:25.358Z,2.17
2022-09-04T08:02:06.396Z,1.88
2022-09-04T08:05:11.829Z,2.55
2022-09-04T08:07:39.561Z,2.30
2022-09-04T08:10:28.375Z,1.80
2022-09-04T08:13:04.922Z,2.30
2022-09-04T08:15:43.279Z,1.95
2022-09-04T08:18:24.668Z,2.13
2022-09-04T08:20:52.924Z,1.85
2022-09-04T08:23:59.072Z,2.35
2022-09-04T08:27:04.338Z,2.20
2022-09-04T08:29:47.354Z,2.10
2022-09-04T08:33:00.843Z,2.22
2022-09-04T08:35:41.255Z,1.77
2022-09-04T08:38:46.100Z,1.90
2022-09-04T08:41:13.828Z,2.45
2022-09-04T08:43:43.767Z,2.00
2022-09-04T08:46:54.229Z,1.73
2022-09-04T08:49:58.047Z,2.42
2022-09-04T08:52:53.271Z,2.30
2022-09-04T08:55:21.174Z,2.30
2022-09-04T08:58:34.487Z,2.08
2022-09-04T09:01:03.472Z,2.35
2022-09-04T09:03:31.132Z,2.30
2022-09-04T09:06:25.376Z,2.35
2022-09-04T09:09:11.221Z,2.30
2022-09-04T09:12:17.087Z,2.72
2022-09-04T09:15:21.877Z,2.13
2022-09-04T09:18:18.087Z,2.67
2022-09-04T09:21:08.936Z,2.03
2022-09-04T09:24:04.227Z,2.47
2022-09-04T09:26:38.939Z,2.47
2022-09-04T09:29:38.425Z,2.00
2022-09-04T09:32:23.701Z,2.58
2022-09-04T09:35:03.236Z,2.10
2022-09-04T09:37:42.241Z,2.10
2022-09-04T09:40:39.838Z,1.95
2022-09-04T09:43:26.925Z,2.10
2022-09-04T09:46:19.064Z,1.90
2022-09-04T09:48:55.784Z,1.80
2022-09-04T09:51:45.997Z,1.83
2022-09-04T09:54:16.157Z,1.88
2022-09-04T09:56:58.724Z,1.90
2022-09-04T09:59:26.274Z,1.88
2022-09-04T10:02:17.641Z,1.83
2022-09-04T10:05:00.277Z,1.95
2022-09-04T10:08:12.117Z,1.73
2022-09-04T10:11:04.691Z,2.63
2022-09-04T10:14:07.538Z,1.98
2022-09-04T10:16:53.259Z,2.03
2022-09-04T10:19:56.726Z,2.25
2022-09-04T10:22:49.499Z,1.85
2022-09-04T10:25:41.294Z,2.13
2022-09-04T10:28:39.913Z,1.85
2022-09-04T10:31:44.744Z,2.00
2022-09-04T10:34:27.747Z,2.05
2022-09-04T10:37:05.953Z,1.75
2022-09-04T10:40:29.889Z,2.13
2022-09-04T10:43:27.939Z,2.00
2022-09-04T10:46:30.351Z,2.40
2022-09-04T10:49:00.758Z,1.77
2022-09-04T10:51:40.395Z,2.63
2022-09-04T10:54:17.126Z,2.00
2022-09-04T10:57:22.954Z,2.35
2022-09-04T11:00:14.022Z,1.83
2022-09-04T11:02:57.356Z,2.13
2022-09-04T11:05:25.229Z,1.98
2022-09-04T11:08:05.887Z,1.73
2022-09-04T11:10:50.689Z,2.75
2022-09-04T11:13:33.509Z,2.20
2022-09-04T11:16:23.336Z,1.65
2022-09-04T11:19:29.084Z,2.17
2022-09-04T11:22:23.962Z,2.00
2022-09-04T11:25:06.651Z,2.35
2022-09-04T11:27:55.725Z,2.30
2022-09-04T11:30:48.649Z,2.78
2022-09-04T11:33:35.009Z,2.30
2022-09-04T11:36:35.567Z,2.47
2022-09-04T11:39:15.148Z,3.63
2022-09-04T11:42:04.519Z,2.40
2022-09-04T11:44:32.289Z,2.22
2022-09-04T11:47:06.832Z,2.53
2022-09-04T11:50:00.584Z,2.38
2022-09-04T11:52:44.394Z,2.75
2022-09-04T11:55:34.519Z,2.65
2022-09-04T11:58:40.400Z,2.17
2022-09-04T12:01:22.990Z,1.90
2022-09-04T12:04:09.281Z,2.15
2022-09-04T12:06:45.707Z,2.67
2022-09-04T12:09:44.546Z,2.38
2022-09-04T12:12:22.803Z,2.13
2022-09-04T12:15:27.554Z,2.20
2022-09-04T12:18:21.293Z,2.00
2022-09-04T12:21:21.084Z,2.05
2022-09-04T12:24:06.808Z,1.77
2022-09-04T12:26:52.026Z,2.20
2022-09-04T12:29:55.680Z,1.83
2022-09-04T12:32:51.168Z,2.10
2022-09-04T12:35:18.563Z,2.15
2022-09-04T12:38:09.858Z,1.83
2022-09-04T12:40:52.529Z,2.20
2022-09-04T12:43:57.342Z,1.98
2022-09-04T12:46:39.523Z,2.20
2022-09-04T12:49:45.490Z,1.90
2022-09-04T12:52:17.565Z,2.05
2022-09-04T12:55:10.166Z,2.30
2022-09-04T12:58:03.684Z,2.28
2022-09-04T13:00:49.214Z,2.10
2022-09-04T13:03:25.545Z,2.28
2022-09-04T13:06:19.712Z,2.20
2022-09-04T13:08:53.482Z,2.38
2022-09-04T13:11:40.256Z,1.70
2022-09-04T13:14:30.518Z,2.17
2022-09-04T13:17:12.108Z,1.88
2022-09-04T13:20:01.170Z,1.92
2022-09-04T13:23:11.350Z,1.65
2022-09-04T13:25:57.346Z,1.73
2022-09-04T13:28:48.687Z,1.67
2022-09-04T13:31:50.397Z,1.70
2022-09-04T13:34:29.186Z,1.30
2022-09-04T13:37:11.529Z,1.60
2022-09-04T13:39:39.054Z,1.50
2022-09-04T13:42:27.261Z,1.58
2022-09-04T13:45:15.552Z,1.45
2022-09-04T13:47:54.411Z,2.00
2022-09-04T13:50:34.628Z,1.73
2022-09-04T13:53:17.436Z,1.85
2022-09-04T13:55:51.625Z,1.80
2022-09-04T13:58:28.527Z,1.63
2022-09-04T14:01:01.113Z,1.60
2022-09-04T14:03:44.429Z,1.48
2022-09-04T14:06:17.045Z,1.90
2022-09-04T14:08:55.617Z,1.52
2022-09-04T14:11:54.410Z,1.58
2022-09-04T14:14:55.900Z,1.80
2022-09-04T14:17:31.337Z,1.33
2022-09-04T14:20:29.142Z,1.67
2022-09-04T14:23:20.573Z,1.80
2022-09-04T14:25:59.726Z,1.27
2022-09-04T14:28:38.632Z,1.85
2022-09-04T14:31:15.232Z,1.35
2022-09-04T14:34:13.907Z,1.60
2022-09-04T14:37:08.113Z,1.27
2022-09-04T14:39:48.351Z,1.45
2022-09-04T14:42:41.849Z,1.30
2022-09-04T14:45:33.696Z,1.55
2022-09-04T14:48:12.135Z,1.38
2022-09-04T14:51:00.133Z,1.80
2022-09-04T14:53:34.955Z,1.50
2022-09-04T14:56:22.232Z,1.40
2022-09-04T14:59:49.428Z,1.50
2022-09-04T15:02:24.768Z,1.63
2022-09-04T15:05:03.476Z,1.58
2022-09-04T15:07:42.991Z,1.42
2022-09-04T15:10:16.745Z,2.38
2022-09-04T15:12:54.048Z,1.52
2022-09-04T15:15:41.161Z,2.13
2022-09-04T15:18:31.391Z,1.67
2022-09-04T15:21:21.291Z,1.55
2022-09-04T15:24:00.046Z,1.70
2022-09-04T15:26:45.885Z,1.65
2022-09-04T15:29:27.050Z,1.92
2022-09-04T15:32:06.528Z,1.80
2022-09-04T15:34:39.875Z,1.52
2022-09-04T15:37:27.012Z,1.60
2022-09-04T15:40:12.652Z,1.70
2022-09-04T15:42:45.099Z,1.60
2022-09-04T15:45:40.146Z,1.35
2022-09-04T15:48:34.959Z,1.15
2022-09-04T15:51:10.232Z,1.27
2022-09-04T15:53:59.667Z,2.47
2022-09-04T15:56:34.959Z,1.30
2022-09-04T15:59:16.149Z,1.30
2022-09-04T16:01:50.839Z,1.30
2022-09-04T16:04:42.486Z,1.77
2022-09-04T16:07:20.234Z,1.48
2022-09-04T16:09:58.369Z,1.65
2022-09-04T16:12:36.647Z,1.77
2022-09-04T16:15:31.351Z,1.35
2022-09-04T16:18:11.214Z,1.30
2022-09-04T16:21:00.227Z,2.92
2022-09-04T16:23:38.518Z,1.67
2022-09-04T16:26:17.667Z,1.45
2022-09-04T16:29:03.617Z,1.80
2022-09-04T16:31:34.974Z,1.60
2022-09-04T16:34:29.855Z,1.23
2022-09-04T16:37:22.726Z,1.80
2022-09-04T16:39:50.343Z,1.45
2022-09-04T16:42:27.074Z,1.60
2022-09-04T16:45:05.988Z,1.40
2022-09-04T16:48:33.425Z,1.88
2022-09-04T16:51:39.820Z,1.38
2022-09-04T16:54:08.869Z,1.15
2022-09-04T16:57:12.931Z,1.30
2022-09-04T16:59:48.693Z,1.42
2022-09-04T17:02:55.599Z,1.33
2022-09-04T17:05:46.741Z,1.83
2022-09-04T17:08:36.868Z,1.45
2022-09-04T17:11:11.475Z,1.42
2022-09-04T17:13:49.976Z,1.85
2022-09-04T17:16:22.172Z,2.28
2022-09-04T17:18:53.831Z,1.50
2022-09-04T17:24:54.372Z,1.80
2022-09-04T17:29:12.479Z,2.13
2022-09-04T17:29:19.626Z,1.70
2022-09-04T17:31:05.792Z,1.50
2022-09-04T17:40:40.548Z,1.70
2022-09-04T17:40:43.843Z,1.60
2022-09-04T17:40:48.981Z,1.92
2022-09-04T17:43:44.102Z,1.90
2022-09-04T17:46:32.467Z,1.45
2022-09-04T17:49:06.093Z,2.03
2022-09-04T17:51:35.270Z,1.50
2022-09-04T17:54:12.273Z,2.33
2022-09-04T17:56:59.912Z,1.52
2022-09-04T17:59:53.677Z,1.80
2022-09-04T18:02:45.889Z,1.55
2022-09-04T18:05:20.931Z,1.45
2022-09-04T18:08:08.190Z,1.50
2022-09-04T18:11:13.817Z,1.67
2022-09-04T18:14:03.763Z,1.85
2022-09-04T18:16:42.379Z,1.48
2022-09-04T18:19:25.427Z,1.95
2022-09-04T18:22:26.170Z,1.63
2022-09-04T18:25:15.815Z,1.38
2022-09-04T18:28:12.423Z,2.10
2022-09-04T18:37:06.780Z,2.08
2022-09-04T18:37:20.964Z,1.83
2022-09-04T18:37:26.391Z,1.52
2022-09-04T18:39:57.446Z,1.20
2022-09-04T18:50:20.701Z,1.88
2022-09-04T18:50:30.861Z,2.40
2022-09-04T18:50:49.242Z,2.00
2022-09-04T18:51:31.612Z,1.95
2022-09-04T18:54:19.018Z,1.65
2022-09-04T18:56:53.953Z,1.40
2022-09-04T18:59:38.348Z,1.50
2022-09-04T19:02:33.066Z,1.85
2022-09-04T19:05:14.826Z,2.57
2022-09-04T19:07:55.081Z,2.07
2022-09-04T19:10:34.313Z,1.95
2022-09-04T19:13:30.919Z,1.97
2022-09-04T19:16:17.877Z,2.30
2022-09-04T19:19:17.086Z,1.90
2022-09-04T19:22:11.286Z,2.13
2022-09-04T19:24:53.827Z,2.20
2022-09-04T19:27:27.755Z,2.30
2022-09-04T19:30:18.821Z,2.80
2022-09-04T19:33:28.577Z,2.17
2022-09-04T19:36:08.365Z,2.47
2022-09-04T19:46:05.417Z,3.60
2022-09-04T19:46:09.185Z,8.30
2022-09-04T19:46:15.955Z,4.83
2022-09-04T19:47:47.878Z,4.10
2022-09-04T19:53:22.944Z,3.20
2022-09-04T19:53:49.197Z,4.30
2022-09-04T19:57:32.789Z,5.63
2022-09-04T20:00:43.553Z,4.47
2022-09-04T20:03:30.904Z,4.10
2022-09-04T20:06:22.606Z,2.97
2022-09-04T20:09:26.429Z,4.10
2022-09-04T20:12:11.371Z,7.20
2022-09-04T20:14:58.809Z,8.60
2022-09-04T20:17:34.142Z,11.33
2022-09-04T20:20:12.211Z,10.03
2022-09-04T20:22:51.845Z,12.83
2022-09-04T20:25:32.808Z,12.07
2022-09-04T20:28:22.714Z,10.97
2022-09-04T20:31:35.370Z,9.13
2022-09-04T20:34:27.938Z,7.80
2022-09-04T20:37:21.581Z,8.20
2022-09-04T20:40:17.463Z,7.73
2022-09-04T20:42:56.528Z,7.50
2022-09-04T20:47:27.923Z,7.77
2022-09-04T20:52:52.601Z,7.03
2022-09-04T20:52:53.855Z,7.33
2022-09-04T20:54:53.369Z,7.17
2022-09-04T21:03:11.525Z,5.67
2022-09-04T21:03:14.095Z,4.63
2022-09-04T21:03:27.990Z,4.50
2022-09-04T21:06:29.080Z,5.07
2022-09-04T21:09:10.658Z,4.80
2022-09-04T21:11:46.084Z,4.33
2022-09-04T21:14:45.450Z,4.47
2022-09-04T21:17:36.037Z,3.93
2022-09-04T21:20:24.601Z,3.10
2022-09-04T21:24:01.982Z,3.17
2022-09-04T21:26:41.308Z,2.90
2022-09-04T21:29:47.551Z,2.50
2022-09-04T21:32:53.199Z,2.80
2022-09-04T21:36:25.515Z,2.87
2022-09-04T21:39:30.299Z,3.50
2022-09-04T21:42:21.536Z,2.63
2022-09-04T21:45:08.382Z,2.67
2022-09-04T21:48:17.957Z,2.80
2022-09-04T21:51:18.653Z,2.37
2022-09-04T21:54:02.498Z,2.60
2022-09-04T22:02:31.479Z,2.33
2022-09-04T22:02:38.664Z,2.57
2022-09-04T22:03:47.779Z,2.60
2022-09-04T22:08:01.068Z,2.23
2022-09-04T22:13:31.986Z,2.17
2022-09-04T22:13:43.096Z,2.50
2022-09-04T22:15:50.513Z,2.73
2022-09-04T22:18:41.920Z,2.30
2022-09-04T22:21:21.665Z,2.63
2022-09-04T22:23:54.309Z,2.77
2022-09-04T22:26:58.788Z,3.60
2022-09-04T22:29:47.109Z,3.20
2022-09-04T22:32:52.260Z,4.10
2022-09-04T22:35:39.511Z,4.63
2022-09-04T22:38:32.443Z,3.93
2022-09-04T22:41:20.623Z,3.93
2022-09-04T22:44:33.712Z,3.90
2022-09-04T22:47:26.117Z,3.13
2022-09-04T22:50:17.727Z,2.97
2022-09-04T22:53:18.042Z,2.67
2022-09-04T22:56:22.799Z,2.57
2022-09-04T22:58:55.578Z,2.67
2022-09-04T23:02:18.600Z,2.63
2022-09-04T23:05:06.250Z,2.70
2022-09-04T23:13:43.117Z,2.67
2022-09-04T23:13:48.524Z,2.30
2022-09-04T23:14:18.370Z,2.40
2022-09-04T23:17:26.793Z,2.47
2022-09-04T23:26:44.648Z,2.67
2022-09-04T23:26:53.320Z,2.50
2022-09-04T23:27:01.705Z,2.40
2022-09-04T23:29:59.426Z,2.67
2022-09-04T23:32:27.591Z,3.27
2022-09-04T23:35:40.742Z,3.23
2022-09-04T23:38:41.227Z,3.83
2022-09-04T23:41:53.607Z,4.90
2022-09-04T23:45:12.587Z,2.50
2022-09-04T23:48:23.321Z,3.13
2022-09-04T23:51:36.415Z,3.23
2022-09-04T23:54:53.407Z,2.60
2022-09-04T23:57:48.296Z,3.00
